sensor_id;sensor_type;location;lat;lon;timestamp;temperature;humidity
1165;DHT22;571;50.930;6.926;2022-07-17T04:01:38;15.50;97.80
1165;DHT22;571;50.930;6.926;2022-07-17T04:04:05;15.40;98.00
1165;DHT22;571;50.930;6.926;2022-07-17T04:06:32;15.50;98.10
1165;DHT22;571;50.930;6.926;2022-07-17T04:08:59;15.40;97.90
1165;DHT22;571;50.930;6.926;2022-07-17T04:11:25;15.40;98.10
1165;DHT22;571;50.930;6.926;2022-07-17T04:13:52;15.40;98.30
1165;DHT22;571;50.930;6.926;2022-07-17T04:16:19;15.40;98.30
1165;DHT22;571;50.930;6.926;2022-07-17T04:18:47;15.50;97.90
1165;DHT22;571;50.930;6.926;2022-07-17T04:21:14;15.50;97.80
1165;DHT22;571;50.930;6.926;2022-07-17T04:23:41;15.40;97.50
1165;DHT22;571;50.930;6.926;2022-07-17T04:26:08;15.50;97.40
1165;DHT22;571;50.930;6.926;2022-07-17T04:28:34;15.40;97.60
1165;DHT22;571;50.930;6.926;2022-07-17T04:31:02;15.50;97.80
1165;DHT22;571;50.930;6.926;2022-07-17T04:33:28;15.60;98.10
1165;DHT22;571;50.930;6.926;2022-07-17T04:35:56;15.70;97.20
1165;DHT22;571;50.930;6.926;2022-07-17T04:38:23;15.70;96.80
1165;DHT22;571;50.930;6.926;2022-07-17T04:40:50;15.90;96.20
1165;DHT22;571;50.930;6.926;2022-07-17T04:43:17;15.80;96.50
1165;DHT22;571;50.930;6.926;2022-07-17T04:45:43;15.90;96.40
1165;DHT22;571;50.930;6.926;2022-07-17T04:48:10;15.70;96.50
1165;DHT22;571;50.930;6.926;2022-07-17T04:50:37;15.80;96.40
1165;DHT22;571;50.930;6.926;2022-07-17T04:53:05;15.80;96.90
1165;DHT22;571;50.930;6.926;2022-07-17T04:55:32;15.70;97.30
1165;DHT22;571;50.930;6.926;2022-07-17T04:57:59;15.80;97.40
1165;DHT22;571;50.930;6.926;2022-07-17T05:00:26;15.80;97.50
1165;DHT22;571;50.930;6.926;2022-07-17T05:02:53;15.90;97.30
1165;DHT22;571;50.930;6.926;2022-07-17T05:05:20;15.90;97.00
1165;DHT22;571;50.930;6.926;2022-07-17T05:07:47;15.80;97.30
1165;DHT22;571;50.930;6.926;2022-07-17T05:10:15;16.10;96.90
1165;DHT22;571;50.930;6.926;2022-07-17T05:12:42;16.10;96.30
1165;DHT22;571;50.930;6.926;2022-07-17T05:15:09;16.10;96.00
1165;DHT22;571;50.930;6.926;2022-07-17T05:17:35;16.00;96.50
1165;DHT22;571;50.930;6.926;2022-07-17T05:20:03;16.30;95.30
1165;DHT22;571;50.930;6.926;2022-07-17T05:22:30;16.50;95.50
1165;DHT22;571;50.930;6.926;2022-07-17T05:24:57;16.20;96.10
1165;DHT22;571;50.930;6.926;2022-07-17T05:27:25;16.40;96.00
1165;DHT22;571;50.930;6.926;2022-07-17T05:29:52;16.10;95.80
1165;DHT22;571;50.930;6.926;2022-07-17T05:32:19;16.20;96.20
1165;DHT22;571;50.930;6.926;2022-07-17T05:34:46;16.30;95.80
1165;DHT22;571;50.930;6.926;2022-07-17T05:37:12;16.30;96.40
1165;DHT22;571;50.930;6.926;2022-07-17T05:39:39;16.30;96.70
1165;DHT22;571;50.930;6.926;2022-07-17T05:42:06;16.30;96.90
1165;DHT22;571;50.930;6.926;2022-07-17T05:44:34;16.40;96.20
1165;DHT22;571;50.930;6.926;2022-07-17T05:47:01;16.30;95.90
1165;DHT22;571;50.930;6.926;2022-07-17T05:49:27;16.50;95.40
1165;DHT22;571;50.930;6.926;2022-07-17T05:51:54;16.60;94.80
1165;DHT22;571;50.930;6.926;2022-07-17T05:54:21;16.60;95.10
1165;DHT22;571;50.930;6.926;2022-07-17T05:56:47;16.50;95.90
1165;DHT22;571;50.930;6.926;2022-07-17T05:59:14;16.90;94.60
1165;DHT22;571;50.930;6.926;2022-07-17T06:01:42;17.00;94.00
1165;DHT22;571;50.930;6.926;2022-07-17T06:04:09;17.10;94.70
1165;DHT22;571;50.930;6.926;2022-07-17T06:06:36;16.90;94.90
1165;DHT22;571;50.930;6.926;2022-07-17T06:09:02;16.80;95.10
1165;DHT22;571;50.930;6.926;2022-07-17T06:11:29;17.00;95.20
1165;DHT22;571;50.930;6.926;2022-07-17T06:13:56;17.10;96.00
1165;DHT22;571;50.930;6.926;2022-07-17T06:16:23;17.20;95.00
1165;DHT22;571;50.930;6.926;2022-07-17T06:18:51;17.30;95.40
1165;DHT22;571;50.930;6.926;2022-07-17T06:21:18;17.20;95.70
1165;DHT22;571;50.930;6.926;2022-07-17T06:23:44;17.40;95.90
1165;DHT22;571;50.930;6.926;2022-07-17T06:26:11;17.30;94.10
1165;DHT22;571;50.930;6.926;2022-07-17T06:28:38;17.50;94.90
1165;DHT22;571;50.930;6.926;2022-07-17T06:31:05;17.50;95.00
1165;DHT22;571;50.930;6.926;2022-07-17T06:33:32;17.60;94.90
1165;DHT22;571;50.930;6.926;2022-07-17T06:36:00;17.70;94.40
1165;DHT22;571;50.930;6.926;2022-07-17T06:38:27;17.60;94.50
1165;DHT22;571;50.930;6.926;2022-07-17T06:40:53;17.60;94.30
1165;DHT22;571;50.930;6.926;2022-07-17T06:43:20;17.70;94.60
1165;DHT22;571;50.930;6.926;2022-07-17T06:45:47;17.90;94.40
1165;DHT22;571;50.930;6.926;2022-07-17T06:48:17;18.00;93.80
1165;DHT22;571;50.930;6.926;2022-07-17T06:50:43;18.00;92.80
1165;DHT22;571;50.930;6.926;2022-07-17T06:53:12;17.90;92.60
1165;DHT22;571;50.930;6.926;2022-07-17T06:55:39;18.10;92.00
1165;DHT22;571;50.930;6.926;2022-07-17T06:58:06;18.10;92.70
1165;DHT22;571;50.930;6.926;2022-07-17T07:00:33;18.50;91.40
1165;DHT22;571;50.930;6.926;2022-07-17T07:03:00;18.40;91.30
1165;DHT22;571;50.930;6.926;2022-07-17T07:05:27;18.30;91.30
1165;DHT22;571;50.930;6.926;2022-07-17T07:07:53;18.50;91.00
1165;DHT22;571;50.930;6.926;2022-07-17T07:10:21;18.50;90.40
1165;DHT22;571;50.930;6.926;2022-07-17T07:12:48;18.80;90.70
1165;DHT22;571;50.930;6.926;2022-07-17T07:15:15;18.90;90.20
1165;DHT22;571;50.930;6.926;2022-07-17T07:17:41;18.70;90.40
1165;DHT22;571;50.930;6.926;2022-07-17T07:20:09;18.90;90.50
1165;DHT22;571;50.930;6.926;2022-07-17T07:22:36;19.00;88.80
1165;DHT22;571;50.930;6.926;2022-07-17T07:25:03;19.00;89.30
1165;DHT22;571;50.930;6.926;2022-07-17T07:27:32;19.20;89.30
1165;DHT22;571;50.930;6.926;2022-07-17T07:29:59;19.40;88.00
1165;DHT22;571;50.930;6.926;2022-07-17T07:32:26;19.50;86.60
1165;DHT22;571;50.930;6.926;2022-07-17T07:34:52;19.70;85.80
1165;DHT22;571;50.930;6.926;2022-07-17T07:37:20;19.60;85.70
1165;DHT22;571;50.930;6.926;2022-07-17T07:39:46;19.70;85.60
1165;DHT22;571;50.930;6.926;2022-07-17T07:42:13;19.80;84.50
1165;DHT22;571;50.930;6.926;2022-07-17T07:44:41;19.90;84.90
1165;DHT22;571;50.930;6.926;2022-07-17T07:47:08;19.90;83.60
1165;DHT22;571;50.930;6.926;2022-07-17T07:49:35;19.90;82.60
1165;DHT22;571;50.930;6.926;2022-07-17T07:52:02;19.90;82.20
1165;DHT22;571;50.930;6.926;2022-07-17T07:54:29;20.10;83.20
1165;DHT22;571;50.930;6.926;2022-07-17T07:56:56;20.00;82.80
1165;DHT22;571;50.930;6.926;2022-07-17T07:59:22;20.00;83.40
1165;DHT22;571;50.930;6.926;2022-07-17T08:01:50;20.00;83.20
1165;DHT22;571;50.930;6.926;2022-07-17T08:04:17;20.00;82.40
1165;DHT22;571;50.930;6.926;2022-07-17T08:06:44;20.20;81.50
1165;DHT22;571;50.930;6.926;2022-07-17T08:09:10;20.20;81.80
1165;DHT22;571;50.930;6.926;2022-07-17T08:11:37;20.40;82.20
1165;DHT22;571;50.930;6.926;2022-07-17T08:14:04;20.40;83.50
1165;DHT22;571;50.930;6.926;2022-07-17T08:16:31;20.50;80.70
1165;DHT22;571;50.930;6.926;2022-07-17T08:19:03;20.60;83.10
1165;DHT22;571;50.930;6.926;2022-07-17T08:21:30;20.70;82.50
1165;DHT22;571;50.930;6.926;2022-07-17T08:23:57;20.70;82.60
1165;DHT22;571;50.930;6.926;2022-07-17T08:26:23;20.90;81.30
1165;DHT22;571;50.930;6.926;2022-07-17T08:28:50;20.70;78.90
1165;DHT22;571;50.930;6.926;2022-07-17T08:31:17;20.90;79.30
1165;DHT22;571;50.930;6.926;2022-07-17T08:33:43;20.80;80.50
1165;DHT22;571;50.930;6.926;2022-07-17T08:36:13;20.80;79.00
1165;DHT22;571;50.930;6.926;2022-07-17T08:38:40;20.90;79.50
1165;DHT22;571;50.930;6.926;2022-07-17T08:41:06;21.00;77.80
1165;DHT22;571;50.930;6.926;2022-07-17T08:43:35;21.20;79.10
1165;DHT22;571;50.930;6.926;2022-07-17T08:46:02;21.30;77.50
1165;DHT22;571;50.930;6.926;2022-07-17T08:48:31;21.60;76.70
1165;DHT22;571;50.930;6.926;2022-07-17T08:50:59;21.70;76.80
1165;DHT22;571;50.930;6.926;2022-07-17T08:53:27;21.70;75.40
1165;DHT22;571;50.930;6.926;2022-07-17T08:55:54;21.80;75.30
1165;DHT22;571;50.930;6.926;2022-07-17T08:58:21;21.90;74.90
1165;DHT22;571;50.930;6.926;2022-07-17T09:00:48;21.80;74.60
1165;DHT22;571;50.930;6.926;2022-07-17T09:03:15;22.10;71.00
1165;DHT22;571;50.930;6.926;2022-07-17T09:05:43;22.10;68.20
1165;DHT22;571;50.930;6.926;2022-07-17T09:08:17;22.00;69.50
1165;DHT22;571;50.930;6.926;2022-07-17T09:10:48;22.00;68.60
1165;DHT22;571;50.930;6.926;2022-07-17T09:13:16;22.10;66.90
1165;DHT22;571;50.930;6.926;2022-07-17T09:15:43;22.10;66.20
1165;DHT22;571;50.930;6.926;2022-07-17T09:18:10;22.10;65.30
1165;DHT22;571;50.930;6.926;2022-07-17T09:20:42;22.00;65.80
1165;DHT22;571;50.930;6.926;2022-07-17T09:23:10;22.20;66.10
1165;DHT22;571;50.930;6.926;2022-07-17T09:25:39;22.30;65.20
1165;DHT22;571;50.930;6.926;2022-07-17T09:28:08;22.30;64.90
1165;DHT22;571;50.930;6.926;2022-07-17T09:30:36;22.40;63.80
1165;DHT22;571;50.930;6.926;2022-07-17T09:33:06;22.30;64.00
1165;DHT22;571;50.930;6.926;2022-07-17T09:35:34;22.30;65.00
1165;DHT22;571;50.930;6.926;2022-07-17T09:38:00;22.30;64.30
1165;DHT22;571;50.930;6.926;2022-07-17T09:40:27;22.50;64.70
1165;DHT22;571;50.930;6.926;2022-07-17T09:43:13;22.70;64.60
1165;DHT22;571;50.930;6.926;2022-07-17T09:45:40;22.90;63.60
1165;DHT22;571;50.930;6.926;2022-07-17T09:48:09;22.90;61.90
1165;DHT22;571;50.930;6.926;2022-07-17T09:50:36;22.90;60.30
1165;DHT22;571;50.930;6.926;2022-07-17T09:53:04;23.10;62.50
1165;DHT22;571;50.930;6.926;2022-07-17T09:55:32;23.10;61.90
1165;DHT22;571;50.930;6.926;2022-07-17T09:58:02;23.20;60.70
1165;DHT22;571;50.930;6.926;2022-07-17T10:00:30;23.20;59.90
1165;DHT22;571;50.930;6.926;2022-07-17T10:02:58;23.20;59.20
1165;DHT22;571;50.930;6.926;2022-07-17T10:05:26;23.20;59.90
1165;DHT22;571;50.930;6.926;2022-07-17T10:07:53;23.30;59.80
1165;DHT22;571;50.930;6.926;2022-07-17T10:10:20;23.30;58.30
1165;DHT22;571;50.930;6.926;2022-07-17T10:12:48;23.60;59.20
1165;DHT22;571;50.930;6.926;2022-07-17T10:15:16;23.80;58.40
1165;DHT22;571;50.930;6.926;2022-07-17T10:17:47;23.70;56.90
1165;DHT22;571;50.930;6.926;2022-07-17T10:20:23;23.80;57.60
1165;DHT22;571;50.930;6.926;2022-07-17T10:22:50;23.80;56.00
1165;DHT22;571;50.930;6.926;2022-07-17T10:25:17;24.10;56.80
1165;DHT22;571;50.930;6.926;2022-07-17T10:27:49;24.00;55.40
1165;DHT22;571;50.930;6.926;2022-07-17T10:30:25;24.10;55.20
1165;DHT22;571;50.930;6.926;2022-07-17T10:32:56;24.10;53.90
1165;DHT22;571;50.930;6.926;2022-07-17T10:35:24;24.10;53.70
1165;DHT22;571;50.930;6.926;2022-07-17T10:37:51;24.00;54.20
1165;DHT22;571;50.930;6.926;2022-07-17T10:40:19;24.30;55.10
1165;DHT22;571;50.930;6.926;2022-07-17T10:42:57;24.30;53.90
1165;DHT22;571;50.930;6.926;2022-07-17T10:45:27;24.30;54.20
1165;DHT22;571;50.930;6.926;2022-07-17T10:47:58;24.30;54.10
1165;DHT22;571;50.930;6.926;2022-07-17T10:50:29;24.40;53.30
1165;DHT22;571;50.930;6.926;2022-07-17T10:53:00;24.40;53.10
1165;DHT22;571;50.930;6.926;2022-07-17T10:55:28;24.40;52.90
1165;DHT22;571;50.930;6.926;2022-07-17T10:57:56;24.50;54.70
1165;DHT22;571;50.930;6.926;2022-07-17T11:00:23;24.70;52.80
1165;DHT22;571;50.930;6.926;2022-07-17T11:02:50;24.80;54.80
1165;DHT22;571;50.930;6.926;2022-07-17T11:05:18;24.90;53.30
1165;DHT22;571;50.930;6.926;2022-07-17T11:07:53;25.20;52.90
1165;DHT22;571;50.930;6.926;2022-07-17T11:10:20;25.50;54.20
1165;DHT22;571;50.930;6.926;2022-07-17T11:12:47;26.00;54.40
1165;DHT22;571;50.930;6.926;2022-07-17T11:15:15;26.40;51.20
1165;DHT22;571;50.930;6.926;2022-07-17T11:17:46;27.00;55.00
1165;DHT22;571;50.930;6.926;2022-07-17T11:20:14;27.50;50.50
1165;DHT22;571;50.930;6.926;2022-07-17T11:22:42;28.10;53.10
1165;DHT22;571;50.930;6.926;2022-07-17T11:25:10;29.10;49.50
1165;DHT22;571;50.930;6.926;2022-07-17T11:27:37;29.70;50.20
1165;DHT22;571;50.930;6.926;2022-07-17T11:30:05;30.10;45.30
1165;DHT22;571;50.930;6.926;2022-07-17T11:32:38;30.80;42.10
1165;DHT22;571;50.930;6.926;2022-07-17T11:35:18;31.10;40.60
1165;DHT22;571;50.930;6.926;2022-07-17T11:37:48;30.50;40.60
1165;DHT22;571;50.930;6.926;2022-07-17T11:40:15;30.20;43.00
1165;DHT22;571;50.930;6.926;2022-07-17T11:42:42;30.00;41.10
1165;DHT22;571;50.930;6.926;2022-07-17T11:45:10;30.00;41.90
1165;DHT22;571;50.930;6.926;2022-07-17T11:47:37;30.50;39.70
1165;DHT22;571;50.930;6.926;2022-07-17T11:50:05;30.90;41.00
1165;DHT22;571;50.930;6.926;2022-07-17T11:52:40;30.80;42.10
1165;DHT22;571;50.930;6.926;2022-07-17T11:55:09;30.90;41.20
1165;DHT22;571;50.930;6.926;2022-07-17T11:57:44;30.40;44.90
1165;DHT22;571;50.930;6.926;2022-07-17T12:00:13;30.80;40.40
1165;DHT22;571;50.930;6.926;2022-07-17T12:02:40;31.30;40.20
1165;DHT22;571;50.930;6.926;2022-07-17T12:05:07;31.00;38.00
1165;DHT22;571;50.930;6.926;2022-07-17T12:07:43;30.80;37.90
1165;DHT22;571;50.930;6.926;2022-07-17T12:10:19;31.00;40.20
1165;DHT22;571;50.930;6.926;2022-07-17T12:12:56;31.40;40.70
1165;DHT22;571;50.930;6.926;2022-07-17T12:15:35;31.60;38.70
1165;DHT22;571;50.930;6.926;2022-07-17T12:18:02;31.70;39.60
1165;DHT22;571;50.930;6.926;2022-07-17T12:20:40;31.90;39.30
1165;DHT22;571;50.930;6.926;2022-07-17T12:23:08;32.30;40.40
1165;DHT22;571;50.930;6.926;2022-07-17T12:25:36;32.40;37.50
1165;DHT22;571;50.930;6.926;2022-07-17T12:28:03;32.40;38.70
1165;DHT22;571;50.930;6.926;2022-07-17T12:30:30;32.90;37.20
1165;DHT22;571;50.930;6.926;2022-07-17T12:32:58;33.00;34.90
1165;DHT22;571;50.930;6.926;2022-07-17T12:35:24;33.30;37.10
1165;DHT22;571;50.930;6.926;2022-07-17T12:37:51;33.50;35.70
1165;DHT22;571;50.930;6.926;2022-07-17T12:40:18;34.10;34.60
1165;DHT22;571;50.930;6.926;2022-07-17T12:42:46;33.70;34.40
1165;DHT22;571;50.930;6.926;2022-07-17T12:45:13;33.50;38.50
1165;DHT22;571;50.930;6.926;2022-07-17T12:47:40;33.60;34.10
1165;DHT22;571;50.930;6.926;2022-07-17T12:50:07;33.40;36.00
1165;DHT22;571;50.930;6.926;2022-07-17T12:52:35;32.90;34.20
1165;DHT22;571;50.930;6.926;2022-07-17T12:55:02;32.80;34.80
1165;DHT22;571;50.930;6.926;2022-07-17T12:57:29;33.00;34.00
1165;DHT22;571;50.930;6.926;2022-07-17T12:59:58;32.80;36.60
1165;DHT22;571;50.930;6.926;2022-07-17T13:02:25;33.70;32.90
1165;DHT22;571;50.930;6.926;2022-07-17T13:04:52;33.70;34.80
1165;DHT22;571;50.930;6.926;2022-07-17T13:07:18;33.40;33.90
1165;DHT22;571;50.930;6.926;2022-07-17T13:09:45;34.10;33.20
1165;DHT22;571;50.930;6.926;2022-07-17T13:12:12;34.00;34.30
1165;DHT22;571;50.930;6.926;2022-07-17T13:14:38;34.50;32.70
1165;DHT22;571;50.930;6.926;2022-07-17T13:17:07;34.50;31.00
1165;DHT22;571;50.930;6.926;2022-07-17T13:19:34;34.80;29.80
1165;DHT22;571;50.930;6.926;2022-07-17T13:22:01;33.70;29.40
1165;DHT22;571;50.930;6.926;2022-07-17T13:24:29;34.70;31.80
1165;DHT22;571;50.930;6.926;2022-07-17T13:26:56;35.30;31.70
1165;DHT22;571;50.930;6.926;2022-07-17T13:29:23;35.10;29.40
1165;DHT22;571;50.930;6.926;2022-07-17T13:31:51;35.50;30.50
1165;DHT22;571;50.930;6.926;2022-07-17T13:34:20;35.20;31.40
1165;DHT22;571;50.930;6.926;2022-07-17T13:36:47;35.70;29.20
1165;DHT22;571;50.930;6.926;2022-07-17T13:39:13;35.20;29.20
1165;DHT22;571;50.930;6.926;2022-07-17T13:41:40;35.80;27.10
1165;DHT22;571;50.930;6.926;2022-07-17T13:44:08;35.70;27.50
1165;DHT22;571;50.930;6.926;2022-07-17T13:46:35;35.00;27.40
1165;DHT22;571;50.930;6.926;2022-07-17T13:49:02;36.20;28.50
1165;DHT22;571;50.930;6.926;2022-07-17T13:51:31;36.40;26.80
1165;DHT22;571;50.930;6.926;2022-07-17T13:53:58;36.60;27.50
1165;DHT22;571;50.930;6.926;2022-07-17T13:56:25;36.50;25.90
1165;DHT22;571;50.930;6.926;2022-07-17T13:58:52;36.30;27.00
1165;DHT22;571;50.930;6.926;2022-07-17T14:01:19;36.00;28.70
1165;DHT22;571;50.930;6.926;2022-07-17T14:03:45;36.50;31.00
1165;DHT22;571;50.930;6.926;2022-07-17T14:06:12;36.60;28.90
1165;DHT22;571;50.930;6.926;2022-07-17T14:08:41;36.10;28.60
1165;DHT22;571;50.930;6.926;2022-07-17T14:11:09;36.80;28.60
1165;DHT22;571;50.930;6.926;2022-07-17T14:13:36;36.20;30.30
1165;DHT22;571;50.930;6.926;2022-07-17T14:16:04;36.60;28.70
1165;DHT22;571;50.930;6.926;2022-07-17T14:18:31;36.70;26.30
1165;DHT22;571;50.930;6.926;2022-07-17T14:20:58;37.00;28.00
1165;DHT22;571;50.930;6.926;2022-07-17T14:23:25;36.70;25.70
1165;DHT22;571;50.930;6.926;2022-07-17T14:25:53;37.50;28.10
1165;DHT22;571;50.930;6.926;2022-07-17T14:28:20;37.60;28.40
1165;DHT22;571;50.930;6.926;2022-07-17T14:30:47;37.50;27.70
1165;DHT22;571;50.930;6.926;2022-07-17T14:33:13;37.60;26.80
1165;DHT22;571;50.930;6.926;2022-07-17T14:35:40;37.60;27.80
1165;DHT22;571;50.930;6.926;2022-07-17T14:38:07;37.60;28.60
1165;DHT22;571;50.930;6.926;2022-07-17T14:40:34;37.70;28.20
1165;DHT22;571;50.930;6.926;2022-07-17T14:43:02;37.10;28.00
1165;DHT22;571;50.930;6.926;2022-07-17T14:45:29;38.00;26.60
1165;DHT22;571;50.930;6.926;2022-07-17T14:47:55;36.80;25.60
1165;DHT22;571;50.930;6.926;2022-07-17T14:50:22;37.90;27.80
1165;DHT22;571;50.930;6.926;2022-07-17T14:52:49;38.00;28.10
1165;DHT22;571;50.930;6.926;2022-07-17T14:55:15;37.90;28.50
1165;DHT22;571;50.930;6.926;2022-07-17T14:57:42;37.80;26.30
1165;DHT22;571;50.930;6.926;2022-07-17T15:00:11;37.70;27.80
1165;DHT22;571;50.930;6.926;2022-07-17T15:02:40;38.00;28.50
1165;DHT22;571;50.930;6.926;2022-07-17T15:05:07;38.20;26.70
1165;DHT22;571;50.930;6.926;2022-07-17T15:07:34;38.30;27.80
1165;DHT22;571;50.930;6.926;2022-07-17T15:10:01;38.30;29.10
1165;DHT22;571;50.930;6.926;2022-07-17T15:12:28;38.80;27.70
1165;DHT22;571;50.930;6.926;2022-07-17T15:14:54;38.30;28.20
1165;DHT22;571;50.930;6.926;2022-07-17T15:17:22;38.00;28.50
1165;DHT22;571;50.930;6.926;2022-07-17T15:19:49;37.70;27.70
1165;DHT22;571;50.930;6.926;2022-07-17T15:22:16;37.40;28.30
1165;DHT22;571;50.930;6.926;2022-07-17T15:24:43;37.70;29.10
1165;DHT22;571;50.930;6.926;2022-07-17T15:27:10;37.70;28.30
1165;DHT22;571;50.930;6.926;2022-07-17T15:29:37;37.90;28.70
1165;DHT22;571;50.930;6.926;2022-07-17T15:32:04;38.90;27.70
1165;DHT22;571;50.930;6.926;2022-07-17T15:34:33;38.50;26.80
1165;DHT22;571;50.930;6.926;2022-07-17T15:37:00;38.80;28.10
1165;DHT22;571;50.930;6.926;2022-07-17T15:39:26;38.50;29.60
1165;DHT22;571;50.930;6.926;2022-07-17T15:41:53;38.40;26.40
1165;DHT22;571;50.930;6.926;2022-07-17T15:44:20;39.10;26.90
1165;DHT22;571;50.930;6.926;2022-07-17T15:46:47;38.70;27.10
1165;DHT22;571;50.930;6.926;2022-07-17T15:49:13;39.40;27.60
1165;DHT22;571;50.930;6.926;2022-07-17T15:51:41;37.60;26.80
1165;DHT22;571;50.930;6.926;2022-07-17T15:54:08;38.00;27.30
1165;DHT22;571;50.930;6.926;2022-07-17T15:56:35;38.40;28.50
1165;DHT22;571;50.930;6.926;2022-07-17T15:59:02;37.90;27.50
1165;DHT22;571;50.930;6.926;2022-07-17T16:01:29;38.20;30.20
1165;DHT22;571;50.930;6.926;2022-07-17T16:03:56;38.40;28.20
1165;DHT22;571;50.930;6.926;2022-07-17T16:06:23;38.90;28.70
1165;DHT22;571;50.930;6.926;2022-07-17T16:08:51;39.60;28.60
1165;DHT22;571;50.930;6.926;2022-07-17T16:11:18;39.20;25.50
1165;DHT22;571;50.930;6.926;2022-07-17T16:13:44;38.70;27.30
1165;DHT22;571;50.930;6.926;2022-07-17T16:16:11;38.60;27.80
1165;DHT22;571;50.930;6.926;2022-07-17T16:18:38;38.20;28.20
1165;DHT22;571;50.930;6.926;2022-07-17T16:21:05;37.70;27.30
1165;DHT22;571;50.930;6.926;2022-07-17T16:23:32;38.10;27.60
1165;DHT22;571;50.930;6.926;2022-07-17T16:26:00;38.20;27.20
1165;DHT22;571;50.930;6.926;2022-07-17T16:28:27;38.10;28.80
1165;DHT22;571;50.930;6.926;2022-07-17T16:30:53;38.00;27.50
1165;DHT22;571;50.930;6.926;2022-07-17T16:33:20;37.90;28.20
1165;DHT22;571;50.930;6.926;2022-07-17T16:35:47;38.30;27.00
1165;DHT22;571;50.930;6.926;2022-07-17T16:38:14;38.30;27.40
1165;DHT22;571;50.930;6.926;2022-07-17T16:40:41;38.00;28.80
1165;DHT22;571;50.930;6.926;2022-07-17T16:43:09;38.10;27.40
1165;DHT22;571;50.930;6.926;2022-07-17T16:45:36;37.80;27.40
1165;DHT22;571;50.930;6.926;2022-07-17T16:48:03;37.70;28.20
1165;DHT22;571;50.930;6.926;2022-07-17T16:50:30;37.70;28.60
1165;DHT22;571;50.930;6.926;2022-07-17T16:52:57;37.70;26.80
1165;DHT22;571;50.930;6.926;2022-07-17T16:55:23;37.50;27.60
1165;DHT22;571;50.930;6.926;2022-07-17T16:57:50;36.80;27.90
1165;DHT22;571;50.930;6.926;2022-07-17T17:00:18;36.60;27.30
1165;DHT22;571;50.930;6.926;2022-07-17T17:02:45;36.60;28.00
1165;DHT22;571;50.930;6.926;2022-07-17T17:05:12;36.00;28.90
1165;DHT22;571;50.930;6.926;2022-07-17T17:07:39;35.20;29.20
1165;DHT22;571;50.930;6.926;2022-07-17T17:10:08;34.90;29.20
1165;DHT22;571;50.930;6.926;2022-07-17T17:12:34;34.50;28.30
1165;DHT22;571;50.930;6.926;2022-07-17T17:15:01;34.00;29.40
1165;DHT22;571;50.930;6.926;2022-07-17T17:17:30;33.70;29.90
1165;DHT22;571;50.930;6.926;2022-07-17T17:19:57;32.70;30.20
1165;DHT22;571;50.930;6.926;2022-07-17T17:22:23;32.30;29.70
1165;DHT22;571;50.930;6.926;2022-07-17T17:24:50;31.90;30.80
1165;DHT22;571;50.930;6.926;2022-07-17T17:27:17;31.40;32.70
1165;DHT22;571;50.930;6.926;2022-07-17T17:29:44;31.20;32.70
1165;DHT22;571;50.930;6.926;2022-07-17T17:32:11;31.10;31.20
1165;DHT22;571;50.930;6.926;2022-07-17T17:34:39;31.20;30.70
1165;DHT22;571;50.930;6.926;2022-07-17T17:37:06;31.10;31.90
1165;DHT22;571;50.930;6.926;2022-07-17T17:39:32;30.90;33.20
1165;DHT22;571;50.930;6.926;2022-07-17T17:41:59;30.90;33.30
1165;DHT22;571;50.930;6.926;2022-07-17T17:44:26;30.80;32.10
1165;DHT22;571;50.930;6.926;2022-07-17T17:46:53;30.60;33.70
1165;DHT22;571;50.930;6.926;2022-07-17T17:49:21;30.30;33.70
1165;DHT22;571;50.930;6.926;2022-07-17T17:51:50;30.40;34.40
1165;DHT22;571;50.930;6.926;2022-07-17T17:54:16;30.30;33.90
1165;DHT22;571;50.930;6.926;2022-07-17T17:56:43;30.30;35.60
1165;DHT22;571;50.930;6.926;2022-07-17T17:59:10;30.30;34.50
1165;DHT22;571;50.930;6.926;2022-07-17T18:01:38;30.20;34.10
1165;DHT22;571;50.930;6.926;2022-07-17T18:04:04;30.20;34.70
1165;DHT22;571;50.930;6.926;2022-07-17T18:06:31;30.20;35.70
1165;DHT22;571;50.930;6.926;2022-07-17T18:09:03;30.00;35.30
1165;DHT22;571;50.930;6.926;2022-07-17T18:11:30;30.10;34.20
1165;DHT22;571;50.930;6.926;2022-07-17T18:13:57;29.90;36.00
1165;DHT22;571;50.930;6.926;2022-07-17T18:16:24;29.80;35.30
1165;DHT22;571;50.930;6.926;2022-07-17T18:18:51;29.50;35.90
1165;DHT22;571;50.930;6.926;2022-07-17T18:21:17;29.40;36.00
1165;DHT22;571;50.930;6.926;2022-07-17T18:23:44;29.50;35.80
1165;DHT22;571;50.930;6.926;2022-07-17T18:26:12;29.60;36.00
1165;DHT22;571;50.930;6.926;2022-07-17T18:28:39;29.40;36.00
1165;DHT22;571;50.930;6.926;2022-07-17T18:31:06;29.20;36.00
1165;DHT22;571;50.930;6.926;2022-07-17T18:33:33;29.30;35.90
1165;DHT22;571;50.930;6.926;2022-07-17T18:36:00;29.40;35.60
1165;DHT22;571;50.930;6.926;2022-07-17T18:38:27;29.30;35.30
1165;DHT22;571;50.930;6.926;2022-07-17T18:40:54;29.20;36.70
1165;DHT22;571;50.930;6.926;2022-07-17T18:43:23;29.00;38.00
1165;DHT22;571;50.930;6.926;2022-07-17T18:45:50;28.80;37.90
1165;DHT22;571;50.930;6.926;2022-07-17T18:48:17;28.60;37.80
1165;DHT22;571;50.930;6.926;2022-07-17T18:50:44;28.50;37.60
1165;DHT22;571;50.930;6.926;2022-07-17T18:53:11;28.40;37.80
1165;DHT22;571;50.930;6.926;2022-07-17T18:55:38;28.30;38.20
1165;DHT22;571;50.930;6.926;2022-07-17T18:58:07;28.30;38.50
1165;DHT22;571;50.930;6.926;2022-07-17T19:00:35;28.00;39.20
1165;DHT22;571;50.930;6.926;2022-07-17T19:03:02;28.00;39.60
1165;DHT22;571;50.930;6.926;2022-07-17T19:05:29;27.90;39.60
1165;DHT22;571;50.930;6.926;2022-07-17T19:07:56;27.70;39.00
1165;DHT22;571;50.930;6.926;2022-07-17T19:10:24;27.60;38.50
1165;DHT22;571;50.930;6.926;2022-07-17T19:12:52;27.60;39.00
1165;DHT22;571;50.930;6.926;2022-07-17T19:15:19;27.50;38.70
1165;DHT22;571;50.930;6.926;2022-07-17T19:17:48;27.50;38.70
1165;DHT22;571;50.930;6.926;2022-07-17T19:20:15;27.40;39.80
1165;DHT22;571;50.930;6.926;2022-07-17T19:22:44;27.40;40.00
1165;DHT22;571;50.930;6.926;2022-07-17T19:25:10;27.20;40.10
1165;DHT22;571;50.930;6.926;2022-07-17T19:27:37;27.10;40.10
1165;DHT22;571;50.930;6.926;2022-07-17T19:30:05;27.10;41.10
1165;DHT22;571;50.930;6.926;2022-07-17T19:32:32;26.90;40.70
1165;DHT22;571;50.930;6.926;2022-07-17T19:35:00;26.80;40.80
1165;DHT22;571;50.930;6.926;2022-07-17T19:37:27;26.80;42.20
1165;DHT22;571;50.930;6.926;2022-07-17T19:39:54;26.80;41.20
1165;DHT22;571;50.930;6.926;2022-07-17T19:42:21;26.70;42.50
1165;DHT22;571;50.930;6.926;2022-07-17T19:44:48;26.60;43.20
1165;DHT22;571;50.930;6.926;2022-07-17T19:47:15;26.60;42.50
1165;DHT22;571;50.930;6.926;2022-07-17T19:49:41;26.40;43.10
1165;DHT22;571;50.930;6.926;2022-07-17T19:52:10;26.30;43.50
1165;DHT22;571;50.930;6.926;2022-07-17T19:54:36;26.20;43.10
1165;DHT22;571;50.930;6.926;2022-07-17T19:57:03;26.20;43.70
1165;DHT22;571;50.930;6.926;2022-07-17T19:59:30;26.10;44.20
1165;DHT22;571;50.930;6.926;2022-07-17T20:01:57;26.00;44.40
1165;DHT22;571;50.930;6.926;2022-07-17T20:04:24;25.80;44.30
1165;DHT22;571;50.930;6.926;2022-07-17T20:06:51;25.70;44.00
1165;DHT22;571;50.930;6.926;2022-07-17T20:09:19;25.60;44.80
1165;DHT22;571;50.930;6.926;2022-07-17T20:11:46;25.70;46.40
1165;DHT22;571;50.930;6.926;2022-07-17T20:14:13;25.70;45.30
1165;DHT22;571;50.930;6.926;2022-07-17T20:16:39;25.50;45.50
1165;DHT22;571;50.930;6.926;2022-07-17T20:19:06;25.40;46.00